createdAt,value
2022-08-09T00:00:20.318Z,18.00
2022-08-09T00:02:49.882Z,17.80
2022-08-09T00:06:19.618Z,17.80
2022-08-09T00:08:09.722Z,17.50
2022-08-09T00:10:38.540Z,17.40
2022-08-09T00:13:17.263Z,17.80
2022-08-09T00:15:59.942Z,17.40
2022-08-09T00:18:35.624Z,17.20
2022-08-09T00:21:08.664Z,17.20
2022-08-09T00:23:56.664Z,17.10
2022-08-09T00:26:29.780Z,17.20
2022-08-09T00:29:01.465Z,17.10
2022-08-09T00:31:57.191Z,17.10
2022-08-09T00:34:19.533Z,17.10
2022-08-09T00:36:48.302Z,17.60
2022-08-09T00:39:16.825Z,17.50
2022-08-09T00:44:19.570Z,17.30
2022-08-09T00:44:53.793Z,17.20
2022-08-09T00:47:24.981Z,17.00
2022-08-09T00:49:56.706Z,17.20
2022-08-09T00:52:30.562Z,17.20
2022-08-09T00:55:00.189Z,17.60
2022-08-09T00:57:34.617Z,17.50
2022-08-09T01:00:21.460Z,17.30
2022-08-09T01:03:28.336Z,17.10
2022-08-09T01:06:53.388Z,17.10
2022-08-09T01:09:36.521Z,16.90
2022-08-09T01:12:17.584Z,17.20
2022-08-09T01:15:10.083Z,17.30
2022-08-09T01:18:01.424Z,17.30
2022-08-09T01:20:52.911Z,17.20
2022-08-09T01:24:02.711Z,17.10
2022-08-09T01:27:10.044Z,17.10
2022-08-09T01:29:55.977Z,17.10
2022-08-09T01:32:45.515Z,17.20
2022-08-09T01:35:37.307Z,17.20
2022-08-09T01:38:15.523Z,17.10
2022-08-09T01:41:05.110Z,17.10
2022-08-09T01:43:50.827Z,17.10
2022-08-09T01:46:28.041Z,17.10
2022-08-09T01:49:12.760Z,17.00
2022-08-09T01:51:53.644Z,17.00
2022-08-09T01:54:33.317Z,17.10
2022-08-09T01:57:08.127Z,17.00
2022-08-09T01:59:41.060Z,17.10
2022-08-09T02:02:31.042Z,16.90
2022-08-09T02:05:15.160Z,17.20
2022-08-09T02:08:40.416Z,17.00
2022-08-09T02:10:51.212Z,17.00
2022-08-09T02:13:21.919Z,17.30
2022-08-09T02:15:56.344Z,17.20
2022-08-09T02:18:26.217Z,17.30
2022-08-09T02:20:59.013Z,17.10
2022-08-09T02:23:39.834Z,17.00
2022-08-09T02:26:25.228Z,16.90
2022-08-09T02:28:59.566Z,17.20
2022-08-09T02:31:38.476Z,17.00
2022-08-09T02:34:40.119Z,16.80
2022-08-09T02:37:12.109Z,16.70
2022-08-09T02:39:55.312Z,16.70
2022-08-09T02:42:33.844Z,16.80
2022-08-09T02:45:26.630Z,16.80
2022-08-09T02:48:01.177Z,16.90
2022-08-09T02:50:39.738Z,17.00
2022-08-09T02:53:25.822Z,17.10
2022-08-09T02:55:58.844Z,17.00
2022-08-09T02:58:32.356Z,17.30
2022-08-09T03:01:04.234Z,17.00
2022-08-09T03:04:13.057Z,16.80
2022-08-09T03:06:23.268Z,17.10
2022-08-09T03:08:53.972Z,17.20
2022-08-09T03:11:29.541Z,17.30
2022-08-09T03:14:12.177Z,17.70
2022-08-09T03:16:44.969Z,17.70
2022-08-09T03:19:14.585Z,17.40
2022-08-09T03:22:03.275Z,17.20
2022-08-09T03:24:42.802Z,17.20
2022-08-09T03:27:21.626Z,17.10
2022-08-09T03:29:57.760Z,17.20
2022-08-09T03:32:34.320Z,17.50
2022-08-09T03:35:44.403Z,17.10
2022-08-09T03:38:09.628Z,17.40
2022-08-09T03:40:55.924Z,16.90
2022-08-09T03:43:23.139Z,17.00
2022-08-09T03:46:04.813Z,17.20
2022-08-09T03:48:42.908Z,17.40
2022-08-09T03:51:56.195Z,17.30
2022-08-09T03:54:11.014Z,17.50
2022-08-09T03:56:41.202Z,17.30
2022-08-09T03:59:17.004Z,17.70
2022-08-09T04:01:49.666Z,17.50
2022-08-09T04:04:18.379Z,17.50
2022-08-09T04:06:49.083Z,18.00
2022-08-09T04:09:48.135Z,17.70
2022-08-09T04:12:30.067Z,17.50
2022-08-09T04:15:02.075Z,17.30
2022-08-09T04:17:42.459Z,17.40
2022-08-09T04:20:12.786Z,17.40
2022-08-09T04:22:44.309Z,17.10
2022-08-09T04:25:13.015Z,17.40
2022-08-09T04:27:46.723Z,17.70
2022-08-09T04:30:23.329Z,17.80
2022-08-09T04:32:54.188Z,17.80
2022-08-09T04:35:21.990Z,17.60
2022-08-09T04:37:50.174Z,17.50
2022-08-09T04:40:19.409Z,17.50
2022-08-09T04:43:03.999Z,17.40
2022-08-09T04:45:36.214Z,17.20
2022-08-09T04:48:19.876Z,17.30
2022-08-09T04:50:46.931Z,17.30
2022-08-09T04:53:17.314Z,17.60
2022-08-09T04:55:57.672Z,17.50
2022-08-09T04:58:31.859Z,17.50
2022-08-09T05:01:01.642Z,17.80
2022-08-09T05:03:39.792Z,18.10
2022-08-09T05:06:11.902Z,17.80
2022-08-09T05:08:49.257Z,18.10
2022-08-09T05:11:16.623Z,18.20
2022-08-09T05:13:44.230Z,18.30
2022-08-09T05:16:11.385Z,18.50
2022-08-09T05:18:57.060Z,18.60
2022-08-09T05:21:30.343Z,18.80
2022-08-09T05:24:04.882Z,18.00
2022-08-09T05:26:45.693Z,18.10
2022-08-09T05:29:21.067Z,17.70
2022-08-09T05:31:57.013Z,18.30
2022-08-09T05:34:31.301Z,18.20
2022-08-09T05:37:06.332Z,18.50
2022-08-09T05:39:42.894Z,18.40
2022-08-09T05:42:20.508Z,18.30
2022-08-09T05:44:53.236Z,18.60
2022-08-09T05:47:33.250Z,19.00
2022-08-09T05:50:35.134Z,18.50
2022-08-09T05:52:53.683Z,18.20
2022-08-09T05:55:21.819Z,18.50
2022-08-09T05:57:57.358Z,18.60
2022-08-09T06:00:32.875Z,18.60
2022-08-09T06:03:02.519Z,18.70
2022-08-09T06:05:50.053Z,18.60
2022-08-09T06:08:24.879Z,18.60
2022-08-09T06:10:58.149Z,18.20
2022-08-09T06:13:28.783Z,18.30
2022-08-09T06:16:01.690Z,18.50
2022-08-09T06:18:32.969Z,18.70
2022-08-09T06:21:01.702Z,18.70
2022-08-09T06:23:57.582Z,18.40
2022-08-09T06:26:22.541Z,18.70
2022-08-09T06:29:00.163Z,18.70
2022-08-09T06:31:31.608Z,20.00
2022-08-09T06:34:08.122Z,18.50
2022-08-09T06:36:37.493Z,18.80
2022-08-09T06:39:12.601Z,18.60
2022-08-09T06:42:08.510Z,18.70
2022-08-09T06:44:28.088Z,18.90
2022-08-09T06:46:55.720Z,18.20
2022-08-09T06:49:44.875Z,18.20
2022-08-09T06:52:12.327Z,18.40
2022-08-09T06:54:44.002Z,18.60
2022-08-09T06:57:12.137Z,18.40
2022-08-09T07:00:52.321Z,18.60
2022-08-09T07:02:31.740Z,18.60
2022-08-09T07:05:00.625Z,18.60
2022-08-09T07:08:00.505Z,18.50
2022-08-09T07:10:29.365Z,18.40
2022-08-09T07:12:59.305Z,18.60
2022-08-09T07:16:35.324Z,18.70
2022-08-09T07:18:15.057Z,18.80
2022-08-09T07:20:43.815Z,18.70
2022-08-09T07:23:18.170Z,18.40
2022-08-09T07:25:47.807Z,18.60
2022-08-09T07:28:28.025Z,18.40
2022-08-09T07:30:55.778Z,18.60
2022-08-09T07:33:23.398Z,18.70
2022-08-09T07:35:54.407Z,18.70
2022-08-09T07:38:23.384Z,18.60
2022-08-09T07:41:09.870Z,18.60
2022-08-09T07:43:41.478Z,18.60
2022-08-09T07:46:19.392Z,18.80
2022-08-09T07:48:52.773Z,19.00
2022-08-09T07:52:05.683Z,19.50
2022-08-09T07:54:15.055Z,19.60
2022-08-09T07:56:48.791Z,19.60
2022-08-09T07:59:25.570Z,19.40
2022-08-09T08:02:02.407Z,19.10
2022-08-09T08:04:32.017Z,19.20
2022-08-09T08:07:15.489Z,18.90
2022-08-09T08:10:08.012Z,19.10
2022-08-09T08:12:43.290Z,19.10
2022-08-09T08:15:16.776Z,18.90
2022-08-09T08:17:55.089Z,19.00
2022-08-09T08:20:30.614Z,18.90
2022-08-09T08:23:16.156Z,18.90
2022-08-09T08:25:49.999Z,19.00
2022-08-09T08:28:32.135Z,19.20
2022-08-09T08:31:04.888Z,19.30
2022-08-09T08:33:53.081Z,19.70
2022-08-09T08:36:29.828Z,19.70
2022-08-09T08:38:59.933Z,19.40
2022-08-09T08:41:51.032Z,19.50
2022-08-09T08:44:26.981Z,19.50
2022-08-09T08:47:02.235Z,19.80
2022-08-09T08:49:46.819Z,20.40
2022-08-09T08:52:52.873Z,20.70
2022-08-09T08:55:08.832Z,20.10
2022-08-09T08:57:37.517Z,19.80
2022-08-09T09:00:16.905Z,20.20
2022-08-09T09:03:08.333Z,20.10
2022-08-09T09:06:00.755Z,20.00
2022-08-09T09:08:37.743Z,19.90
2022-08-09T09:11:08.417Z,20.00
2022-08-09T09:13:47.452Z,20.10
2022-08-09T09:16:30.289Z,20.50
2022-08-09T09:19:22.438Z,20.40
2022-08-09T09:22:07.402Z,20.50
2022-08-09T09:24:44.914Z,20.30
2022-08-09T09:30:24.734Z,21.20
2022-08-09T09:33:15.830Z,22.20
2022-08-09T09:36:02.433Z,23.40
2022-08-09T09:38:48.726Z,23.20
2022-08-09T09:41:27.839Z,23.00
2022-08-09T09:44:11.072Z,22.10
2022-08-09T09:46:45.902Z,22.20
2022-08-09T09:49:56.427Z,21.80
2022-08-09T09:52:16.404Z,21.40
2022-08-09T09:55:27.524Z,21.70
2022-08-09T09:58:18.753Z,24.30
2022-08-09T10:00:55.125Z,24.70
2022-08-09T10:04:00.099Z,22.40
2022-08-09T10:06:43.465Z,22.20
2022-08-09T10:09:22.249Z,21.80
2022-08-09T10:12:12.905Z,20.80
2022-08-09T10:14:51.640Z,21.40
2022-08-09T10:17:39.580Z,21.20
2022-08-09T10:20:27.557Z,21.20
2022-08-09T10:23:13.427Z,21.00
2022-08-09T10:26:07.887Z,21.10
2022-08-09T10:28:31.783Z,21.60
2022-08-09T10:34:10.571Z,20.80
2022-08-09T10:36:42.449Z,21.20
2022-08-09T10:39:15.407Z,21.20
2022-08-09T10:41:43.598Z,21.90
2022-08-09T10:44:10.979Z,23.40
2022-08-09T10:47:01.394Z,25.20
2022-08-09T10:49:49.750Z,23.80
2022-08-09T10:52:27.238Z,23.70
2022-08-09T10:54:55.968Z,24.40
2022-08-09T10:57:36.386Z,25.00
2022-08-09T11:00:37.132Z,24.70
2022-08-09T11:03:47.054Z,22.80
2022-08-09T11:06:24.579Z,22.90
2022-08-09T11:08:54.044Z,23.40
2022-08-09T11:11:23.074Z,25.10
2022-08-09T11:14:28.891Z,26.80
2022-08-09T11:17:10.456Z,25.80
2022-08-09T11:20:11.619Z,23.00
2022-08-09T11:22:44.865Z,21.90
2022-08-09T11:25:25.954Z,22.10
2022-08-09T11:28:35.196Z,22.70
2022-08-09T11:31:49.564Z,23.00
2022-08-09T11:34:43.424Z,22.40
2022-08-09T11:37:24.844Z,21.80
2022-08-09T11:40:08.833Z,21.60
2022-08-09T11:42:48.789Z,21.70
2022-08-09T11:45:42.909Z,21.90
2022-08-09T11:48:25.965Z,22.50
2022-08-09T11:52:49.189Z,22.20
2022-08-09T11:54:01.325Z,21.60
2022-08-09T11:56:42.730Z,21.50
2022-08-09T11:59:30.159Z,22.00
2022-08-09T12:02:17.367Z,22.20
2022-08-09T12:04:46.361Z,22.40
2022-08-09T12:07:14.296Z,23.90
2022-08-09T12:09:50.299Z,24.00
2022-08-09T12:12:20.582Z,23.20
2022-08-09T12:15:07.324Z,22.50
2022-08-09T12:17:44.272Z,22.90
2022-08-09T12:20:21.853Z,22.90
2022-08-09T12:22:55.693Z,22.50
2022-08-09T12:25:31.991Z,22.70
2022-08-09T12:29:11.580Z,22.70
2022-08-09T12:31:10.808Z,22.60
2022-08-09T12:33:59.128Z,22.80
2022-08-09T12:36:31.776Z,23.50
2022-08-09T12:39:00.211Z,25.80
2022-08-09T12:41:30.364Z,26.40
2022-08-09T12:44:05.959Z,26.90
2022-08-09T12:46:36.044Z,27.10
2022-08-09T12:49:04.377Z,24.60
2022-08-09T12:52:00.386Z,24.00
2022-08-09T12:54:19.071Z,24.00
2022-08-09T12:56:51.044Z,24.00
2022-08-09T12:59:20.836Z,22.90
2022-08-09T13:02:00.184Z,23.00
2022-08-09T13:04:35.899Z,22.30
2022-08-09T13:07:19.289Z,22.40
2022-08-09T13:09:55.976Z,24.10
2022-08-09T13:12:30.771Z,24.70
2022-08-09T13:15:10.157Z,26.90
2022-08-09T13:18:02.605Z,28.50
2022-08-09T13:21:04.215Z,28.10
2022-08-09T13:24:42.515Z,26.80
2022-08-09T13:26:42.312Z,24.10
2022-08-09T13:29:28.595Z,22.60
2022-08-09T13:32:20.266Z,22.30
2022-08-09T13:34:53.881Z,22.00
2022-08-09T13:37:48.970Z,24.10
2022-08-09T13:41:45.744Z,24.10
2022-08-09T13:42:57.282Z,23.50
2022-08-09T13:45:32.360Z,22.90
2022-08-09T13:48:11.943Z,23.20
2022-08-09T13:50:42.742Z,26.00
2022-08-09T13:53:10.574Z,27.50
2022-08-09T13:55:38.150Z,28.70
2022-08-09T13:58:08.076Z,28.80
2022-08-09T14:00:49.813Z,28.10
2022-08-09T14:04:05.343Z,25.80
2022-08-09T14:06:25.752Z,24.20
2022-08-09T14:08:54.335Z,25.60
2022-08-09T14:11:22.292Z,25.00
2022-08-09T14:14:22.719Z,24.70
2022-08-09T14:16:37.673Z,24.10
2022-08-09T14:19:08.209Z,25.60
2022-08-09T14:21:35.309Z,26.90
2022-08-09T14:24:10.045Z,25.40
2022-08-09T14:26:51.360Z,26.10
2022-08-09T14:30:18.541Z,24.70
2022-08-09T14:32:11.421Z,23.00
2022-08-09T14:34:41.305Z,23.60
2022-08-09T14:37:41.332Z,22.90
2022-08-09T14:39:59.083Z,22.30
2022-08-09T14:42:30.468Z,22.10
2022-08-09T14:46:54.919Z,22.00
2022-08-09T14:47:57.391Z,21.90
2022-08-09T14:50:31.489Z,21.90
2022-08-09T14:53:01.251Z,22.10
2022-08-09T14:55:32.303Z,22.30
2022-08-09T14:58:03.340Z,22.20
2022-08-09T15:00:33.928Z,22.20
2022-08-09T15:03:06.461Z,22.10
2022-08-09T15:05:36.552Z,21.90
2022-08-09T15:08:05.221Z,21.90
2022-08-09T15:10:34.253Z,22.00
2022-08-09T15:13:02.986Z,21.90
2022-08-09T15:15:34.312Z,21.80
2022-08-09T15:18:08.194Z,21.60
2022-08-09T15:21:56.830Z,21.50
2022-08-09T15:24:00.708Z,21.50
2022-08-09T15:26:18.774Z,21.50
2022-08-09T15:28:55.620Z,21.60
2022-08-09T15:31:28.569Z,21.30
2022-08-09T15:34:31.402Z,21.40
2022-08-09T15:36:58.176Z,21.20
2022-08-09T15:39:43.992Z,21.30
2022-08-09T15:42:13.295Z,21.40
2022-08-09T15:44:42.312Z,21.30
2022-08-09T15:47:09.559Z,21.30
2022-08-09T15:50:00.766Z,21.40
2022-08-09T15:52:31.726Z,21.40
2022-08-09T15:54:59.232Z,21.30
2022-08-09T15:57:35.392Z,21.00
2022-08-09T16:00:25.512Z,21.30
2022-08-09T16:02:56.179Z,21.20
2022-08-09T16:05:47.618Z,21.10
2022-08-09T16:08:30.213Z,21.00
2022-08-09T16:11:03.304Z,21.30
2022-08-09T16:14:05.557Z,21.20
2022-08-09T16:16:19.392Z,21.00
2022-08-09T16:18:47.765Z,20.90
2022-08-09T16:21:17.651Z,20.90
2022-08-09T16:23:58.573Z,20.90
2022-08-09T16:26:35.216Z,20.90
2022-08-09T16:29:15.913Z,20.80
2022-08-09T16:32:18.318Z,20.70
2022-08-09T16:34:44.801Z,20.70
2022-08-09T16:37:53.795Z,20.50
2022-08-09T16:40:11.904Z,20.50
2022-08-09T16:42:44.816Z,20.40
2022-08-09T16:45:14.404Z,20.30
2022-08-09T16:48:50.278Z,20.40
2022-08-09T16:50:34.273Z,20.30
2022-08-09T16:53:02.855Z,20.50
2022-08-09T16:55:57.785Z,20.40
2022-08-09T16:58:21.030Z,20.30
2022-08-09T17:00:49.237Z,20.30
2022-08-09T17:03:21.987Z,20.10
2022-08-09T17:06:07.111Z,20.10
2022-08-09T17:09:00.148Z,20.10
2022-08-09T17:11:41.912Z,20.00
2022-08-09T17:14:25.358Z,20.00
2022-08-09T17:17:01.422Z,20.10
2022-08-09T17:19:47.484Z,20.00
2022-08-09T17:22:36.086Z,20.00
2022-08-09T17:25:12.778Z,20.10
2022-08-09T17:27:49.527Z,20.00
2022-08-09T17:33:22.681Z,19.70
2022-08-09T17:35:50.769Z,19.70
2022-08-09T17:38:34.187Z,19.60
2022-08-09T17:41:38.659Z,19.60
2022-08-09T17:44:41.961Z,19.40
2022-08-09T17:46:55.573Z,19.50
2022-08-09T17:49:23.635Z,19.40
2022-08-09T17:51:52.474Z,19.40
2022-08-09T17:54:19.862Z,19.30
2022-08-09T17:56:53.012Z,19.30
2022-08-09T17:59:20.435Z,19.30
2022-08-09T18:02:06.487Z,19.30
2022-08-09T18:04:36.306Z,19.20
2022-08-09T18:07:04.896Z,19.30
2022-08-09T18:09:41.942Z,19.30
2022-08-09T18:12:17.869Z,19.10
2022-08-09T18:14:54.982Z,19.20
2022-08-09T18:17:27.400Z,19.20
2022-08-09T18:20:55.247Z,19.00
2022-08-09T18:23:05.219Z,19.10
2022-08-09T18:25:45.505Z,18.80
2022-08-09T18:30:37.728Z,18.80
2022-08-09T18:31:07.405Z,19.00
2022-08-09T18:33:34.853Z,18.90
2022-08-09T18:36:02.669Z,18.80
2022-08-09T18:38:30.027Z,19.00
2022-08-09T18:40:58.779Z,18.80
2022-08-09T18:43:35.081Z,18.80
2022-08-09T18:46:51.018Z,18.90
2022-08-09T18:48:51.728Z,19.00
2022-08-09T18:51:20.379Z,19.00
2022-08-09T18:54:08.563Z,18.80
2022-08-09T18:56:43.651Z,18.80
2022-08-09T18:59:21.172Z,18.70
2022-08-09T19:04:32.096Z,18.80
2022-08-09T19:07:02.475Z,18.80
2022-08-09T19:10:13.158Z,18.70
2022-08-09T19:12:21.127Z,18.70
2022-08-09T19:14:51.421Z,18.60
2022-08-09T19:17:19.523Z,18.60
2022-08-09T19:19:48.824Z,18.60
2022-08-09T19:22:17.605Z,18.60
2022-08-09T19:25:09.635Z,18.70
2022-08-09T19:27:35.430Z,18.70
2022-08-09T19:30:23.016Z,18.50
2022-08-09T19:32:55.542Z,18.50
2022-08-09T19:35:26.094Z,18.60
2022-08-09T19:37:57.763Z,18.80
2022-08-09T19:40:34.602Z,18.70
2022-08-09T19:43:05.207Z,18.80
2022-08-09T19:45:38.870Z,18.80
2022-08-09T19:48:10.626Z,18.80
2022-08-09T19:50:51.260Z,18.90
2022-08-09T19:53:21.552Z,18.80
2022-08-09T19:56:05.555Z,18.90
2022-08-09T19:58:34.690Z,18.70
2022-08-09T20:01:02.148Z,18.60
2022-08-09T20:04:16.644Z,18.60
2022-08-09T20:06:23.313Z,18.50
2022-08-09T20:08:56.955Z,18.60
2022-08-09T20:11:26.563Z,18.60
2022-08-09T20:13:55.399Z,18.60
2022-08-09T20:16:33.459Z,18.70
2022-08-09T20:19:42.713Z,18.70
2022-08-09T20:21:55.903Z,18.70
2022-08-09T20:24:29.632Z,18.70
2022-08-09T20:27:01.665Z,18.50
2022-08-09T20:29:37.110Z,18.40
2022-08-09T20:32:33.070Z,18.50
2022-08-09T20:34:59.187Z,18.50
2022-08-09T20:38:18.511Z,18.40
2022-08-09T20:40:19.266Z,18.30
2022-08-09T20:42:59.270Z,18.70
2022-08-09T20:46:00.492Z,18.60
2022-08-09T20:48:20.866Z,18.50
2022-08-09T20:50:54.311Z,18.40
2022-08-09T20:53:35.757Z,18.20
2022-08-09T20:56:08.877Z,18.00
2022-08-09T20:58:38.032Z,18.20
2022-08-09T21:01:32.343Z,18.30
2022-08-09T21:05:48.824Z,18.40
2022-08-09T21:06:46.745Z,18.50
2022-08-09T21:09:14.401Z,18.40
2022-08-09T21:14:38.288Z,17.90
2022-08-09T21:18:21.808Z,17.90
2022-08-09T21:20:18.639Z,18.00
2022-08-09T21:22:47.001Z,17.90
2022-08-09T21:25:38.526Z,17.90
2022-08-09T21:28:07.073Z,17.80
2022-08-09T21:30:36.994Z,17.90
2022-08-09T21:33:08.450Z,17.80
2022-08-09T21:35:40.555Z,17.90
2022-08-09T21:38:21.023Z,18.00
2022-08-09T21:40:58.982Z,17.90
2022-08-09T21:43:57.779Z,17.90
2022-08-09T21:46:13.832Z,17.90
2022-08-09T21:48:42.803Z,17.90
2022-08-09T21:51:24.056Z,17.80
2022-08-09T21:53:55.334Z,17.70
2022-08-09T21:56:42.961Z,17.70
2022-08-09T21:59:11.669Z,17.70
2022-08-09T22:01:59.338Z,17.90
2022-08-09T22:04:55.816Z,17.70
2022-08-09T22:07:35.472Z,17.80
2022-08-09T22:10:06.869Z,17.80
2022-08-09T22:12:34.477Z,17.70
2022-08-09T22:15:04.818Z,18.00
2022-08-09T22:17:36.404Z,17.80
2022-08-09T22:20:21.515Z,17.90
2022-08-09T22:22:49.495Z,17.90
2022-08-09T22:26:05.866Z,17.60
2022-08-09T22:28:06.517Z,17.50
2022-08-09T22:30:34.715Z,17.40
2022-08-09T22:33:10.250Z,17.40
2022-08-09T22:36:01.343Z,17.40
2022-08-09T22:38:30.765Z,16.80
2022-08-09T22:40:58.768Z,17.60
2022-08-09T22:44:02.362Z,17.50
2022-08-09T22:48:10.965Z,17.50
2022-08-09T22:49:10.932Z,17.50
2022-08-09T22:51:43.462Z,17.50
2022-08-09T22:54:21.321Z,16.60
2022-08-09T22:56:50.865Z,17.50
2022-08-09T22:59:57.611Z,17.60
2022-08-09T23:02:10.786Z,17.50
2022-08-09T23:04:43.998Z,17.60
2022-08-09T23:08:22.528Z,17.60
2022-08-09T23:10:31.948Z,17.60
2022-08-09T23:12:59.661Z,17.70
2022-08-09T23:15:28.817Z,17.80
2022-08-09T23:17:57.033Z,17.60
2022-08-09T23:20:25.893Z,17.70
2022-08-09T23:22:53.013Z,17.60
2022-08-09T23:25:20.286Z,17.80
2022-08-09T23:27:57.895Z,17.70
2022-08-09T23:30:37.363Z,17.40
2022-08-09T23:33:05.178Z,17.50
2022-08-09T23:36:05.027Z,17.60
2022-08-09T23:38:21.031Z,17.40
2022-08-09T23:40:51.477Z,17.50
2022-08-09T23:43:19.428Z,17.60
2022-08-09T23:45:47.797Z,17.60
2022-08-09T23:48:15.194Z,17.50
2022-08-09T23:50:42.316Z,17.40
2022-08-09T23:53:09.621Z,17.40
2022-08-09T23:55:39.528Z,17.30
2022-08-09T23:58:24.238Z,17.40
